createdAt,value
2023-03-23T15:59:03.605Z,16.60
2023-03-23T16:04:09.798Z,16.50
2023-03-23T16:09:16.795Z,16.50
2023-03-23T16:14:21.525Z,16.50
2023-03-23T16:19:25.167Z,16.40
2023-03-23T16:24:28.507Z,16.40
2023-03-23T16:29:54.323Z,16.30
2023-03-23T16:34:56.733Z,16.30
2023-03-23T16:40:00.835Z,16.30
2023-03-23T16:45:06.994Z,16.30
2023-03-23T16:50:13.063Z,16.20
2023-03-23T16:55:18.122Z,16.20
2023-03-23T17:00:23.715Z,16.10
2023-03-23T17:05:29.097Z,16.10
2023-03-23T17:10:34.034Z,16.00
2023-03-23T17:15:40.452Z,15.90
2023-03-23T17:20:44.519Z,15.80
2023-03-23T17:25:48.821Z,15.80
2023-03-23T17:30:54.200Z,15.70
2023-03-23T17:35:57.530Z,15.60
2023-03-23T17:41:04.256Z,15.50
2023-03-23T17:46:10.382Z,15.40
2023-03-23T17:51:14.575Z,15.30
2023-03-23T17:56:18.872Z,15.30
2023-03-23T18:01:23.728Z,15.30
2023-03-23T18:06:27.181Z,15.30
2023-03-23T18:11:31.521Z,15.20
2023-03-23T18:16:36.341Z,15.10
2023-03-23T18:21:44.540Z,15.00
2023-03-23T18:26:49.150Z,14.90
2023-03-23T18:31:53.983Z,16.50
2023-03-23T18:36:57.491Z,14.90
2023-03-23T18:42:01.443Z,14.60
2023-03-23T18:47:06.711Z,14.70
2023-03-23T18:52:10.218Z,14.70
2023-03-23T18:57:13.984Z,14.60
2023-03-23T19:02:19.536Z,14.50
2023-03-23T19:07:22.947Z,13.40
2023-03-23T19:12:26.374Z,14.40
2023-03-23T19:17:31.169Z,14.60
2023-03-23T19:22:34.526Z,14.60
2023-03-23T19:28:01.735Z,14.40
2023-03-23T19:33:02.727Z,14.40
2023-03-23T19:38:06.340Z,14.30
2023-03-23T19:43:10.457Z,14.30
2023-03-23T19:48:16.075Z,14.30
2023-03-23T19:53:20.007Z,14.30
2023-03-23T19:58:23.486Z,14.20
2023-03-23T20:03:28.490Z,14.20
2023-03-23T20:08:32.083Z,14.20
2023-03-23T20:13:35.987Z,14.30
2023-03-23T20:18:41.122Z,14.30
2023-03-23T20:23:46.033Z,14.30
2023-03-23T20:28:49.955Z,14.40
2023-03-23T20:34:00.690Z,14.30
2023-03-23T20:39:07.814Z,14.30
2023-03-23T20:44:15.957Z,14.40
2023-03-23T20:49:22.151Z,16.90
2023-03-23T20:54:25.678Z,14.30
2023-03-23T20:59:29.575Z,14.30
2023-03-23T21:04:34.572Z,14.30
2023-03-23T21:09:38.430Z,14.30
2023-03-23T21:14:42.466Z,13.00
2023-03-23T21:19:47.711Z,14.40
2023-03-23T21:24:51.461Z,14.50
2023-03-23T21:29:59.460Z,14.50
2023-03-23T21:35:04.540Z,14.40
2023-03-23T21:40:13.290Z,14.40
2023-03-23T21:45:21.298Z,14.50
2023-03-23T21:50:26.333Z,14.60
2023-03-23T21:55:30.653Z,14.60
2023-03-23T22:00:34.127Z,13.70
2023-03-23T22:05:42.478Z,14.50
2023-03-23T22:11:00.428Z,14.60
2023-03-23T22:16:07.189Z,14.50
2023-03-23T22:21:13.211Z,14.50
2023-03-23T22:26:17.512Z,14.50
2023-03-23T22:31:23.637Z,14.60
2023-03-23T22:36:30.877Z,14.50
2023-03-23T22:41:36.902Z,14.50
2023-03-23T22:46:40.390Z,14.40
2023-03-23T22:51:45.284Z,14.30
2023-03-23T22:56:48.983Z,14.30
2023-03-23T23:01:52.567Z,14.20
2023-03-23T23:07:10.105Z,14.20
2023-03-23T23:12:17.182Z,14.20
2023-03-23T23:17:20.567Z,14.10
2023-03-23T23:22:25.508Z,14.20
2023-03-23T23:27:28.941Z,14.20
2023-03-23T23:32:33.806Z,14.20
2023-03-23T23:37:39.153Z,14.20
2023-03-23T23:42:43.112Z,14.20
2023-03-23T23:47:47.291Z,14.20
2023-03-23T23:52:52.513Z,14.10
2023-03-23T23:57:56.928Z,13.80
